sensor_id;sensor_type;location;lat;lon;timestamp;P1;durP1;ratioP1;P2;durP2;ratioP2
35917;SDS011;22011;59.912;30.300;2023-08-30T00:00:24;11.85;;;5.95;;
35917;SDS011;22011;59.912;30.300;2023-08-30T00:02:52;17.13;;;6.03;;
35917;SDS011;22011;59.912;30.300;2023-08-30T00:05:19;10.57;;;6.47;;
35917;SDS011;22011;59.912;30.300;2023-08-30T00:07:47;9.57;;;6.47;;
35917;SDS011;22011;59.912;30.300;2023-08-30T00:10:16;17.45;;;6.63;;
35917;SDS011;22011;59.912;30.300;2023-08-30T00:12:44;8.00;;;6.37;;
35917;SDS011;22011;59.912;30.300;2023-08-30T00:15:11;10.13;;;6.43;;
35917;SDS011;22011;59.912;30.300;2023-08-30T00:17:40;8.88;;;6.82;;
35917;SDS011;22011;59.912;30.300;2023-08-30T00:20:07;9.82;;;6.20;;
35917;SDS011;22011;59.912;30.300;2023-08-30T00:22:36;12.85;;;7.25;;
35917;SDS011;22011;59.912;30.300;2023-08-30T00:25:04;13.93;;;7.20;;
35917;SDS011;22011;59.912;30.300;2023-08-30T00:27:33;14.73;;;7.20;;
35917;SDS011;22011;59.912;30.300;2023-08-30T00:30:01;14.35;;;6.95;;
35917;SDS011;22011;59.912;30.300;2023-08-30T00:32:28;15.65;;;7.40;;
35917;SDS011;22011;59.912;30.300;2023-08-30T00:34:56;12.65;;;7.00;;
35917;SDS011;22011;59.912;30.300;2023-08-30T00:37:24;9.48;;;6.68;;
35917;SDS011;22011;59.912;30.300;2023-08-30T00:39:51;18.50;;;7.50;;
35917;SDS011;22011;59.912;30.300;2023-08-30T00:42:19;11.68;;;6.85;;
35917;SDS011;22011;59.912;30.300;2023-08-30T00:44:50;14.00;;;7.40;;
35917;SDS011;22011;59.912;30.300;2023-08-30T00:47:17;12.15;;;7.28;;
35917;SDS011;22011;59.912;30.300;2023-08-30T00:49:45;16.58;;;8.55;;
35917;SDS011;22011;59.912;30.300;2023-08-30T00:52:13;11.93;;;7.97;;
35917;SDS011;22011;59.912;30.300;2023-08-30T00:54:41;15.38;;;7.93;;
35917;SDS011;22011;59.912;30.300;2023-08-30T00:57:08;13.57;;;7.53;;
35917;SDS011;22011;59.912;30.300;2023-08-30T00:59:36;13.93;;;8.23;;
35917;SDS011;22011;59.912;30.300;2023-08-30T01:02:06;17.10;;;8.10;;
35917;SDS011;22011;59.912;30.300;2023-08-30T01:04:34;15.88;;;8.00;;
35917;SDS011;22011;59.912;30.300;2023-08-30T01:07:01;13.73;;;7.93;;
35917;SDS011;22011;59.912;30.300;2023-08-30T01:09:29;15.00;;;8.13;;
35917;SDS011;22011;59.912;30.300;2023-08-30T01:11:57;15.65;;;8.65;;
35917;SDS011;22011;59.912;30.300;2023-08-30T01:14:31;14.02;;;8.38;;
35917;SDS011;22011;59.912;30.300;2023-08-30T01:17:06;15.50;;;8.60;;
35917;SDS011;22011;59.912;30.300;2023-08-30T01:19:40;16.50;;;9.05;;
35917;SDS011;22011;59.912;30.300;2023-08-30T01:22:17;19.58;;;10.27;;
35917;SDS011;22011;59.912;30.300;2023-08-30T01:24:58;21.33;;;9.50;;
35917;SDS011;22011;59.912;30.300;2023-08-30T01:27:35;20.35;;;10.55;;
35917;SDS011;22011;59.912;30.300;2023-08-30T01:30:05;25.95;;;12.02;;
35917;SDS011;22011;59.912;30.300;2023-08-30T01:32:34;19.27;;;10.57;;
35917;SDS011;22011;59.912;30.300;2023-08-30T01:35:04;23.15;;;10.90;;
35917;SDS011;22011;59.912;30.300;2023-08-30T01:37:33;27.83;;;12.18;;
35917;SDS011;22011;59.912;30.300;2023-08-30T01:40:01;33.85;;;13.30;;
35917;SDS011;22011;59.912;30.300;2023-08-30T01:42:31;37.78;;;14.40;;
35917;SDS011;22011;59.912;30.300;2023-08-30T01:45:04;36.00;;;14.65;;
35917;SDS011;22011;59.912;30.300;2023-08-30T01:47:34;40.85;;;14.55;;
35917;SDS011;22011;59.912;30.300;2023-08-30T01:50:03;26.73;;;12.30;;
35917;SDS011;22011;59.912;30.300;2023-08-30T01:52:31;24.98;;;12.75;;
35917;SDS011;22011;59.912;30.300;2023-08-30T01:55:00;24.75;;;12.65;;
35917;SDS011;22011;59.912;30.300;2023-08-30T01:57:30;25.15;;;12.05;;
35917;SDS011;22011;59.912;30.300;2023-08-30T01:59:58;25.70;;;11.95;;
35917;SDS011;22011;59.912;30.300;2023-08-30T02:02:29;27.08;;;11.73;;
35917;SDS011;22011;59.912;30.300;2023-08-30T02:04:57;32.75;;;12.07;;
35917;SDS011;22011;59.912;30.300;2023-08-30T02:07:26;23.90;;;11.73;;
35917;SDS011;22011;59.912;30.300;2023-08-30T02:10:01;22.95;;;10.85;;
35917;SDS011;22011;59.912;30.300;2023-08-30T02:12:37;33.30;;;12.48;;
35917;SDS011;22011;59.912;30.300;2023-08-30T02:15:09;28.20;;;14.63;;
35917;SDS011;22011;59.912;30.300;2023-08-30T02:17:41;37.38;;;15.00;;
35917;SDS011;22011;59.912;30.300;2023-08-30T02:20:10;38.28;;;15.50;;
35917;SDS011;22011;59.912;30.300;2023-08-30T02:22:38;37.80;;;16.08;;
35917;SDS011;22011;59.912;30.300;2023-08-30T02:25:06;40.78;;;17.77;;
35917;SDS011;22011;59.912;30.300;2023-08-30T02:27:35;43.63;;;18.08;;
35917;SDS011;22011;59.912;30.300;2023-08-30T02:30:03;47.95;;;21.52;;
35917;SDS011;22011;59.912;30.300;2023-08-30T02:32:32;55.50;;;24.23;;
35917;SDS011;22011;59.912;30.300;2023-08-30T02:35:01;57.83;;;26.52;;
35917;SDS011;22011;59.912;30.300;2023-08-30T02:37:29;64.32;;;27.48;;
35917;SDS011;22011;59.912;30.300;2023-08-30T02:39:57;52.78;;;26.90;;
35917;SDS011;22011;59.912;30.300;2023-08-30T02:42:24;56.75;;;26.35;;
35917;SDS011;22011;59.912;30.300;2023-08-30T02:44:53;59.83;;;26.70;;
35917;SDS011;22011;59.912;30.300;2023-08-30T02:47:21;47.38;;;24.25;;
35917;SDS011;22011;59.912;30.300;2023-08-30T02:49:48;34.58;;;21.83;;
35917;SDS011;22011;59.912;30.300;2023-08-30T02:52:18;33.75;;;21.13;;
35917;SDS011;22011;59.912;30.300;2023-08-30T02:54:45;36.47;;;22.02;;
35917;SDS011;22011;59.912;30.300;2023-08-30T02:57:13;34.40;;;19.23;;
35917;SDS011;22011;59.912;30.300;2023-08-30T02:59:41;37.55;;;19.80;;
35917;SDS011;22011;59.912;30.300;2023-08-30T03:02:08;28.95;;;19.33;;
35917;SDS011;22011;59.912;30.300;2023-08-30T03:04:36;30.60;;;20.55;;
35917;SDS011;22011;59.912;30.300;2023-08-30T03:07:04;30.40;;;18.30;;
35917;SDS011;22011;59.912;30.300;2023-08-30T03:09:33;24.75;;;18.83;;
35917;SDS011;22011;59.912;30.300;2023-08-30T03:12:01;25.00;;;16.42;;
35917;SDS011;22011;59.912;30.300;2023-08-30T03:14:29;19.45;;;14.70;;
35917;SDS011;22011;59.912;30.300;2023-08-30T03:16:57;22.77;;;13.77;;
35917;SDS011;22011;59.912;30.300;2023-08-30T03:19:25;18.00;;;13.57;;
35917;SDS011;22011;59.912;30.300;2023-08-30T03:21:53;25.42;;;14.10;;
35917;SDS011;22011;59.912;30.300;2023-08-30T03:24:21;15.95;;;11.50;;
35917;SDS011;22011;59.912;30.300;2023-08-30T03:26:50;20.88;;;13.05;;
35917;SDS011;22011;59.912;30.300;2023-08-30T03:29:19;15.75;;;12.32;;
35917;SDS011;22011;59.912;30.300;2023-08-30T03:31:47;19.05;;;11.18;;
35917;SDS011;22011;59.912;30.300;2023-08-30T03:34:14;19.98;;;11.50;;
35917;SDS011;22011;59.912;30.300;2023-08-30T03:36:42;15.35;;;10.35;;
35917;SDS011;22011;59.912;30.300;2023-08-30T03:39:10;15.40;;;11.27;;
35917;SDS011;22011;59.912;30.300;2023-08-30T03:41:38;17.95;;;10.45;;
35917;SDS011;22011;59.912;30.300;2023-08-30T03:44:07;13.73;;;9.43;;
35917;SDS011;22011;59.912;30.300;2023-08-30T03:46:35;14.60;;;9.70;;
35917;SDS011;22011;59.912;30.300;2023-08-30T03:49:03;17.92;;;9.07;;
35917;SDS011;22011;59.912;30.300;2023-08-30T03:51:30;14.95;;;10.05;;
35917;SDS011;22011;59.912;30.300;2023-08-30T03:53:58;27.25;;;10.23;;
35917;SDS011;22011;59.912;30.300;2023-08-30T03:56:27;17.17;;;10.13;;
35917;SDS011;22011;59.912;30.300;2023-08-30T03:58:54;14.32;;;10.05;;
35917;SDS011;22011;59.912;30.300;2023-08-30T04:01:23;18.45;;;11.07;;
35917;SDS011;22011;59.912;30.300;2023-08-30T04:03:52;18.20;;;11.02;;
35917;SDS011;22011;59.912;30.300;2023-08-30T04:06:19;19.52;;;11.50;;
35917;SDS011;22011;59.912;30.300;2023-08-30T04:08:48;23.33;;;12.00;;
35917;SDS011;22011;59.912;30.300;2023-08-30T04:11:16;17.10;;;12.00;;
35917;SDS011;22011;59.912;30.300;2023-08-30T04:13:45;19.13;;;13.60;;
35917;SDS011;22011;59.912;30.300;2023-08-30T04:16:13;19.80;;;13.60;;
35917;SDS011;22011;59.912;30.300;2023-08-30T04:18:42;18.55;;;13.85;;
35917;SDS011;22011;59.912;30.300;2023-08-30T04:21:10;19.45;;;13.27;;
35917;SDS011;22011;59.912;30.300;2023-08-30T04:23:37;19.52;;;12.70;;
35917;SDS011;22011;59.912;30.300;2023-08-30T04:26:05;14.48;;;12.15;;
35917;SDS011;22011;59.912;30.300;2023-08-30T04:28:34;16.65;;;13.73;;
35917;SDS011;22011;59.912;30.300;2023-08-30T04:31:02;18.48;;;15.38;;
35917;SDS011;22011;59.912;30.300;2023-08-30T04:33:29;21.08;;;16.02;;
35917;SDS011;22011;59.912;30.300;2023-08-30T04:35:58;17.65;;;14.80;;
35917;SDS011;22011;59.912;30.300;2023-08-30T04:38:26;14.95;;;11.98;;
35917;SDS011;22011;59.912;30.300;2023-08-30T04:40:56;12.40;;;9.70;;
35917;SDS011;22011;59.912;30.300;2023-08-30T04:43:25;14.48;;;8.07;;
35917;SDS011;22011;59.912;30.300;2023-08-30T04:45:53;11.98;;;7.18;;
35917;SDS011;22011;59.912;30.300;2023-08-30T04:48:22;8.55;;;6.07;;
35917;SDS011;22011;59.912;30.300;2023-08-30T04:50:59;10.35;;;6.82;;
35917;SDS011;22011;59.912;30.300;2023-08-30T04:53:28;10.75;;;7.00;;
35917;SDS011;22011;59.912;30.300;2023-08-30T04:55:58;7.53;;;5.60;;
35917;SDS011;22011;59.912;30.300;2023-08-30T04:58:27;8.82;;;6.32;;
35917;SDS011;22011;59.912;30.300;2023-08-30T05:00:55;11.15;;;5.90;;
35917;SDS011;22011;59.912;30.300;2023-08-30T05:03:24;6.30;;;5.45;;
35917;SDS011;22011;59.912;30.300;2023-08-30T05:05:54;7.20;;;5.30;;
35917;SDS011;22011;59.912;30.300;2023-08-30T05:08:25;14.10;;;5.47;;
35917;SDS011;22011;59.912;30.300;2023-08-30T05:10:53;7.10;;;5.03;;
35917;SDS011;22011;59.912;30.300;2023-08-30T05:13:21;5.38;;;4.43;;
35917;SDS011;22011;59.912;30.300;2023-08-30T05:15:49;8.27;;;5.30;;
35917;SDS011;22011;59.912;30.300;2023-08-30T05:18:18;6.10;;;4.95;;
35917;SDS011;22011;59.912;30.300;2023-08-30T05:23:15;8.05;;;5.38;;
35917;SDS011;22011;59.912;30.300;2023-08-30T05:25:45;10.18;;;5.85;;
35917;SDS011;22011;59.912;30.300;2023-08-30T05:28:14;10.23;;;5.60;;
35917;SDS011;22011;59.912;30.300;2023-08-30T05:30:42;9.50;;;5.75;;
35917;SDS011;22011;59.912;30.300;2023-08-30T05:33:23;13.43;;;5.57;;
35917;SDS011;22011;59.912;30.300;2023-08-30T05:36:03;12.20;;;5.55;;
35917;SDS011;22011;59.912;30.300;2023-08-30T05:38:49;11.23;;;6.07;;
35917;SDS011;22011;59.912;30.300;2023-08-30T05:41:33;7.13;;;5.25;;
35917;SDS011;22011;59.912;30.300;2023-08-30T05:44:01;7.78;;;5.82;;
35917;SDS011;22011;59.912;30.300;2023-08-30T05:46:29;8.52;;;5.97;;
35917;SDS011;22011;59.912;30.300;2023-08-30T05:48:57;9.52;;;6.72;;
35917;SDS011;22011;59.912;30.300;2023-08-30T05:51:26;11.30;;;6.60;;
35917;SDS011;22011;59.912;30.300;2023-08-30T05:53:54;14.00;;;7.75;;
35917;SDS011;22011;59.912;30.300;2023-08-30T05:56:21;12.85;;;7.28;;
35917;SDS011;22011;59.912;30.300;2023-08-30T05:58:51;12.40;;;7.82;;
35917;SDS011;22011;59.912;30.300;2023-08-30T06:01:19;13.52;;;8.80;;
35917;SDS011;22011;59.912;30.300;2023-08-30T06:03:47;16.40;;;8.57;;
35917;SDS011;22011;59.912;30.300;2023-08-30T06:06:16;15.70;;;9.38;;
35917;SDS011;22011;59.912;30.300;2023-08-30T06:08:43;12.75;;;8.48;;
35917;SDS011;22011;59.912;30.300;2023-08-30T06:11:11;15.30;;;8.25;;
35917;SDS011;22011;59.912;30.300;2023-08-30T06:13:39;14.55;;;8.50;;
35917;SDS011;22011;59.912;30.300;2023-08-30T06:16:08;17.67;;;8.27;;
35917;SDS011;22011;59.912;30.300;2023-08-30T06:18:36;23.08;;;9.30;;
35917;SDS011;22011;59.912;30.300;2023-08-30T06:21:04;19.45;;;9.40;;
35917;SDS011;22011;59.912;30.300;2023-08-30T06:23:32;21.30;;;8.20;;
35917;SDS011;22011;59.912;30.300;2023-08-30T06:26:00;23.17;;;9.73;;
35917;SDS011;22011;59.912;30.300;2023-08-30T06:28:28;18.23;;;10.25;;
35917;SDS011;22011;59.912;30.300;2023-08-30T06:30:56;21.25;;;10.95;;
35917;SDS011;22011;59.912;30.300;2023-08-30T06:33:25;23.73;;;11.77;;
35917;SDS011;22011;59.912;30.300;2023-08-30T06:35:54;22.73;;;11.50;;
35917;SDS011;22011;59.912;30.300;2023-08-30T06:38:22;23.17;;;11.32;;
35917;SDS011;22011;59.912;30.300;2023-08-30T06:40:49;29.50;;;13.50;;
35917;SDS011;22011;59.912;30.300;2023-08-30T06:43:17;23.20;;;12.35;;
35917;SDS011;22011;59.912;30.300;2023-08-30T06:45:45;24.45;;;11.68;;
35917;SDS011;22011;59.912;30.300;2023-08-30T06:48:13;27.90;;;11.88;;
35917;SDS011;22011;59.912;30.300;2023-08-30T06:50:42;21.58;;;10.30;;
35917;SDS011;22011;59.912;30.300;2023-08-30T06:53:09;24.05;;;8.65;;
35917;SDS011;22011;59.912;30.300;2023-08-30T06:55:37;17.95;;;9.27;;
35917;SDS011;22011;59.912;30.300;2023-08-30T06:58:05;13.88;;;6.85;;
35917;SDS011;22011;59.912;30.300;2023-08-30T07:00:32;17.80;;;5.90;;
35917;SDS011;22011;59.912;30.300;2023-08-30T07:03:00;9.35;;;4.82;;
35917;SDS011;22011;59.912;30.300;2023-08-30T07:05:28;14.80;;;5.65;;
35917;SDS011;22011;59.912;30.300;2023-08-30T07:07:57;11.80;;;5.20;;
35917;SDS011;22011;59.912;30.300;2023-08-30T07:10:24;9.97;;;4.53;;
35917;SDS011;22011;59.912;30.300;2023-08-30T07:12:52;9.10;;;3.58;;
35917;SDS011;22011;59.912;30.300;2023-08-30T07:15:19;9.73;;;3.85;;
35917;SDS011;22011;59.912;30.300;2023-08-30T07:17:47;12.13;;;3.58;;
35917;SDS011;22011;59.912;30.300;2023-08-30T07:20:15;11.48;;;3.38;;
35917;SDS011;22011;59.912;30.300;2023-08-30T07:22:42;6.70;;;3.00;;
35917;SDS011;22011;59.912;30.300;2023-08-30T07:25:11;7.85;;;2.88;;
35917;SDS011;22011;59.912;30.300;2023-08-30T07:27:39;9.77;;;2.75;;
35917;SDS011;22011;59.912;30.300;2023-08-30T07:30:07;6.75;;;2.78;;
35917;SDS011;22011;59.912;30.300;2023-08-30T07:32:36;6.18;;;3.42;;
35917;SDS011;22011;59.912;30.300;2023-08-30T07:35:04;8.00;;;3.55;;
35917;SDS011;22011;59.912;30.300;2023-08-30T07:37:32;8.05;;;2.72;;
35917;SDS011;22011;59.912;30.300;2023-08-30T07:40:01;19.23;;;3.90;;
35917;SDS011;22011;59.912;30.300;2023-08-30T07:42:31;8.88;;;3.15;;
35917;SDS011;22011;59.912;30.300;2023-08-30T07:44:59;6.53;;;2.75;;
35917;SDS011;22011;59.912;30.300;2023-08-30T07:47:27;8.32;;;2.90;;
35917;SDS011;22011;59.912;30.300;2023-08-30T07:49:54;9.35;;;3.20;;
35917;SDS011;22011;59.912;30.300;2023-08-30T07:52:22;4.72;;;2.65;;
35917;SDS011;22011;59.912;30.300;2023-08-30T07:54:49;7.75;;;3.45;;
35917;SDS011;22011;59.912;30.300;2023-08-30T07:57:17;6.20;;;2.45;;
35917;SDS011;22011;59.912;30.300;2023-08-30T07:59:46;4.22;;;2.92;;
35917;SDS011;22011;59.912;30.300;2023-08-30T08:02:13;8.55;;;2.67;;
35917;SDS011;22011;59.912;30.300;2023-08-30T08:04:41;7.25;;;2.72;;
35917;SDS011;22011;59.912;30.300;2023-08-30T08:07:09;7.45;;;2.50;;
35917;SDS011;22011;59.912;30.300;2023-08-30T08:09:36;7.85;;;2.67;;
35917;SDS011;22011;59.912;30.300;2023-08-30T08:12:04;6.50;;;2.80;;
35917;SDS011;22011;59.912;30.300;2023-08-30T08:14:32;7.13;;;2.50;;
35917;SDS011;22011;59.912;30.300;2023-08-30T08:17:01;4.50;;;2.35;;
35917;SDS011;22011;59.912;30.300;2023-08-30T08:19:29;4.53;;;2.28;;
35917;SDS011;22011;59.912;30.300;2023-08-30T08:21:56;7.90;;;1.75;;
35917;SDS011;22011;59.912;30.300;2023-08-30T08:24:24;10.68;;;2.72;;
35917;SDS011;22011;59.912;30.300;2023-08-30T08:26:51;5.32;;;2.40;;
35917;SDS011;22011;59.912;30.300;2023-08-30T08:29:19;4.35;;;2.20;;
35917;SDS011;22011;59.912;30.300;2023-08-30T08:31:46;6.80;;;2.55;;
35917;SDS011;22011;59.912;30.300;2023-08-30T08:34:16;4.22;;;2.05;;
35917;SDS011;22011;59.912;30.300;2023-08-30T08:36:43;4.65;;;2.35;;
35917;SDS011;22011;59.912;30.300;2023-08-30T08:39:11;5.53;;;2.70;;
35917;SDS011;22011;59.912;30.300;2023-08-30T08:41:40;2.53;;;2.17;;
35917;SDS011;22011;59.912;30.300;2023-08-30T08:44:08;4.97;;;3.47;;
35917;SDS011;22011;59.912;30.300;2023-08-30T08:46:37;5.10;;;2.97;;
35917;SDS011;22011;59.912;30.300;2023-08-30T08:49:08;7.53;;;2.90;;
35917;SDS011;22011;59.912;30.300;2023-08-30T08:51:39;5.00;;;2.70;;
35917;SDS011;22011;59.912;30.300;2023-08-30T08:54:07;4.43;;;2.60;;
35917;SDS011;22011;59.912;30.300;2023-08-30T08:56:36;7.60;;;3.22;;
35917;SDS011;22011;59.912;30.300;2023-08-30T08:59:04;4.40;;;2.58;;
35917;SDS011;22011;59.912;30.300;2023-08-30T09:01:33;6.07;;;3.17;;
35917;SDS011;22011;59.912;30.300;2023-08-30T09:04:05;3.42;;;2.63;;
35917;SDS011;22011;59.912;30.300;2023-08-30T09:06:33;5.10;;;2.78;;
35917;SDS011;22011;59.912;30.300;2023-08-30T09:09:03;5.43;;;3.40;;
35917;SDS011;22011;59.912;30.300;2023-08-30T09:11:32;8.15;;;3.22;;
35917;SDS011;22011;59.912;30.300;2023-08-30T09:13:59;4.13;;;2.45;;
35917;SDS011;22011;59.912;30.300;2023-08-30T09:16:27;5.10;;;2.42;;
35917;SDS011;22011;59.912;30.300;2023-08-30T09:18:58;6.55;;;3.17;;
35917;SDS011;22011;59.912;30.300;2023-08-30T09:21:26;5.30;;;3.65;;
35917;SDS011;22011;59.912;30.300;2023-08-30T09:23:58;8.38;;;3.10;;
35917;SDS011;22011;59.912;30.300;2023-08-30T09:26:27;10.15;;;3.30;;
35917;SDS011;22011;59.912;30.300;2023-08-30T09:29:00;9.88;;;3.88;;
35917;SDS011;22011;59.912;30.300;2023-08-30T09:31:32;7.38;;;3.50;;
35917;SDS011;22011;59.912;30.300;2023-08-30T09:34:00;8.65;;;3.53;;
35917;SDS011;22011;59.912;30.300;2023-08-30T09:36:32;9.40;;;3.90;;
35917;SDS011;22011;59.912;30.300;2023-08-30T09:39:03;6.45;;;3.17;;
35917;SDS011;22011;59.912;30.300;2023-08-30T09:41:32;6.20;;;3.50;;
35917;SDS011;22011;59.912;30.300;2023-08-30T09:44:05;4.97;;;3.30;;
35917;SDS011;22011;59.912;30.300;2023-08-30T09:46:39;5.03;;;3.00;;
35917;SDS011;22011;59.912;30.300;2023-08-30T09:49:08;7.45;;;2.95;;
35917;SDS011;22011;59.912;30.300;2023-08-30T09:51:37;7.38;;;2.50;;
35917;SDS011;22011;59.912;30.300;2023-08-30T09:54:07;5.82;;;3.20;;
35917;SDS011;22011;59.912;30.300;2023-08-30T09:56:42;6.20;;;2.75;;
35917;SDS011;22011;59.912;30.300;2023-08-30T09:59:10;5.78;;;2.63;;
35917;SDS011;22011;59.912;30.300;2023-08-30T10:01:38;6.97;;;2.08;;
35917;SDS011;22011;59.912;30.300;2023-08-30T10:04:07;5.25;;;2.17;;
35917;SDS011;22011;59.912;30.300;2023-08-30T10:06:35;3.13;;;2.58;;
35917;SDS011;22011;59.912;30.300;2023-08-30T10:09:04;4.93;;;2.30;;
35917;SDS011;22011;59.912;30.300;2023-08-30T10:11:34;8.55;;;2.50;;
35917;SDS011;22011;59.912;30.300;2023-08-30T10:14:04;4.10;;;2.40;;
35917;SDS011;22011;59.912;30.300;2023-08-30T10:19:07;5.13;;;2.88;;
35917;SDS011;22011;59.912;30.300;2023-08-30T10:21:38;5.82;;;2.63;;
35917;SDS011;22011;59.912;30.300;2023-08-30T10:24:07;3.35;;;2.88;;
35917;SDS011;22011;59.912;30.300;2023-08-30T10:26:37;9.32;;;2.60;;
35917;SDS011;22011;59.912;30.300;2023-08-30T10:29:09;3.95;;;2.80;;
35917;SDS011;22011;59.912;30.300;2023-08-30T10:31:38;4.95;;;2.80;;
35917;SDS011;22011;59.912;30.300;2023-08-30T10:34:11;5.10;;;2.95;;
35917;SDS011;22011;59.912;30.300;2023-08-30T10:36:41;6.22;;;2.83;;
35917;SDS011;22011;59.912;30.300;2023-08-30T10:39:11;5.85;;;2.63;;
35917;SDS011;22011;59.912;30.300;2023-08-30T10:41:53;8.40;;;2.58;;
35917;SDS011;22011;59.912;30.300;2023-08-30T10:44:23;6.90;;;3.20;;
35917;SDS011;22011;59.912;30.300;2023-08-30T10:46:54;5.23;;;2.73;;
35917;SDS011;22011;59.912;30.300;2023-08-30T10:49:22;5.10;;;2.78;;
35917;SDS011;22011;59.912;30.300;2023-08-30T10:51:56;4.07;;;2.53;;
35917;SDS011;22011;59.912;30.300;2023-08-30T10:54:25;5.82;;;2.58;;
35917;SDS011;22011;59.912;30.300;2023-08-30T10:56:56;6.85;;;3.10;;
35917;SDS011;22011;59.912;30.300;2023-08-30T10:59:28;15.25;;;2.67;;
35917;SDS011;22011;59.912;30.300;2023-08-30T11:01:56;3.47;;;2.22;;
35917;SDS011;22011;59.912;30.300;2023-08-30T11:04:29;3.88;;;2.50;;
35917;SDS011;22011;59.912;30.300;2023-08-30T11:06:57;7.20;;;2.40;;
35917;SDS011;22011;59.912;30.300;2023-08-30T11:09:24;4.80;;;2.50;;
35917;SDS011;22011;59.912;30.300;2023-08-30T11:11:52;5.28;;;2.75;;
35917;SDS011;22011;59.912;30.300;2023-08-30T11:14:20;7.53;;;2.83;;
35917;SDS011;22011;59.912;30.300;2023-08-30T11:16:49;5.18;;;2.83;;
35917;SDS011;22011;59.912;30.300;2023-08-30T11:19:16;4.93;;;2.78;;
35917;SDS011;22011;59.912;30.300;2023-08-30T11:21:44;3.95;;;2.83;;
35917;SDS011;22011;59.912;30.300;2023-08-30T11:24:12;3.92;;;2.72;;
35917;SDS011;22011;59.912;30.300;2023-08-30T11:26:40;4.15;;;2.60;;
35917;SDS011;22011;59.912;30.300;2023-08-30T11:29:08;3.75;;;2.63;;
35917;SDS011;22011;59.912;30.300;2023-08-30T11:31:36;4.72;;;2.95;;
35917;SDS011;22011;59.912;30.300;2023-08-30T11:34:05;9.05;;;2.83;;
35917;SDS011;22011;59.912;30.300;2023-08-30T11:36:34;3.60;;;2.13;;
35917;SDS011;22011;59.912;30.300;2023-08-30T11:39:03;5.30;;;2.47;;
35917;SDS011;22011;59.912;30.300;2023-08-30T11:41:31;4.10;;;2.33;;
35917;SDS011;22011;59.912;30.300;2023-08-30T11:43:59;4.03;;;2.75;;
35917;SDS011;22011;59.912;30.300;2023-08-30T11:46:26;4.45;;;2.40;;
35917;SDS011;22011;59.912;30.300;2023-08-30T11:48:54;3.20;;;2.42;;
35917;SDS011;22011;59.912;30.300;2023-08-30T11:51:23;5.40;;;2.50;;
35917;SDS011;22011;59.912;30.300;2023-08-30T11:53:51;9.63;;;2.40;;
35917;SDS011;22011;59.912;30.300;2023-08-30T11:56:20;3.53;;;2.72;;
35917;SDS011;22011;59.912;30.300;2023-08-30T11:58:47;11.63;;;2.95;;
35917;SDS011;22011;59.912;30.300;2023-08-30T12:01:17;5.07;;;2.42;;
35917;SDS011;22011;59.912;30.300;2023-08-30T12:03:45;2.80;;;2.00;;
35917;SDS011;22011;59.912;30.300;2023-08-30T12:06:16;4.47;;;2.50;;
35917;SDS011;22011;59.912;30.300;2023-08-30T12:08:45;3.85;;;2.38;;
35917;SDS011;22011;59.912;30.300;2023-08-30T12:11:19;5.27;;;2.53;;
35917;SDS011;22011;59.912;30.300;2023-08-30T12:13:47;6.10;;;2.10;;
35917;SDS011;22011;59.912;30.300;2023-08-30T12:16:16;5.38;;;2.50;;
35917;SDS011;22011;59.912;30.300;2023-08-30T12:18:44;4.35;;;1.95;;
35917;SDS011;22011;59.912;30.300;2023-08-30T12:21:13;2.33;;;1.88;;
35917;SDS011;22011;59.912;30.300;2023-08-30T12:23:41;3.28;;;2.33;;
35917;SDS011;22011;59.912;30.300;2023-08-30T12:26:10;3.65;;;2.35;;
35917;SDS011;22011;59.912;30.300;2023-08-30T12:28:38;2.83;;;2.03;;
35917;SDS011;22011;59.912;30.300;2023-08-30T12:31:07;3.63;;;2.20;;
35917;SDS011;22011;59.912;30.300;2023-08-30T12:33:35;4.53;;;2.00;;
35917;SDS011;22011;59.912;30.300;2023-08-30T12:36:03;4.95;;;2.42;;
35917;SDS011;22011;59.912;30.300;2023-08-30T12:38:31;3.00;;;2.10;;
35917;SDS011;22011;59.912;30.300;2023-08-30T12:40:59;4.20;;;2.60;;
35917;SDS011;22011;59.912;30.300;2023-08-30T12:43:28;3.38;;;2.10;;
35917;SDS011;22011;59.912;30.300;2023-08-30T12:45:56;3.93;;;2.20;;
35917;SDS011;22011;59.912;30.300;2023-08-30T12:48:23;3.42;;;2.35;;
35917;SDS011;22011;59.912;30.300;2023-08-30T12:50:51;3.30;;;2.35;;
35917;SDS011;22011;59.912;30.300;2023-08-30T12:53:19;4.45;;;2.10;;
35917;SDS011;22011;59.912;30.300;2023-08-30T12:55:46;3.42;;;1.70;;
35917;SDS011;22011;59.912;30.300;2023-08-30T12:58:14;2.95;;;1.67;;
35917;SDS011;22011;59.912;30.300;2023-08-30T13:00:43;3.75;;;2.25;;
35917;SDS011;22011;59.912;30.300;2023-08-30T13:03:10;3.03;;;2.00;;
35917;SDS011;22011;59.912;30.300;2023-08-30T13:05:38;4.95;;;2.05;;
35917;SDS011;22011;59.912;30.300;2023-08-30T13:08:06;3.63;;;1.92;;
35917;SDS011;22011;59.912;30.300;2023-08-30T13:10:33;8.13;;;2.10;;
35917;SDS011;22011;59.912;30.300;2023-08-30T13:13:01;5.43;;;1.95;;
35917;SDS011;22011;59.912;30.300;2023-08-30T13:15:29;5.68;;;2.03;;
35917;SDS011;22011;59.912;30.300;2023-08-30T13:17:58;2.38;;;1.70;;
35917;SDS011;22011;59.912;30.300;2023-08-30T13:20:25;4.35;;;1.63;;
35917;SDS011;22011;59.912;30.300;2023-08-30T13:22:53;4.38;;;1.88;;
35917;SDS011;22011;59.912;30.300;2023-08-30T13:25:21;5.40;;;1.48;;
35917;SDS011;22011;59.912;30.300;2023-08-30T13:27:48;4.93;;;1.48;;
35917;SDS011;22011;59.912;30.300;2023-08-30T13:30:16;3.47;;;1.63;;
35917;SDS011;22011;59.912;30.300;2023-08-30T13:32:44;11.60;;;2.22;;
35917;SDS011;22011;59.912;30.300;2023-08-30T13:35:13;6.97;;;2.28;;
35917;SDS011;22011;59.912;30.300;2023-08-30T13:37:40;6.40;;;1.93;;
35917;SDS011;22011;59.912;30.300;2023-08-30T13:40:08;3.90;;;1.92;;
35917;SDS011;22011;59.912;30.300;2023-08-30T13:42:37;5.70;;;2.00;;
35917;SDS011;22011;59.912;30.300;2023-08-30T13:45:05;6.47;;;2.03;;
35917;SDS011;22011;59.912;30.300;2023-08-30T13:47:35;3.15;;;2.13;;
35917;SDS011;22011;59.912;30.300;2023-08-30T13:50:03;3.83;;;1.90;;
35917;SDS011;22011;59.912;30.300;2023-08-30T13:52:32;4.85;;;2.20;;
35917;SDS011;22011;59.912;30.300;2023-08-30T13:55:00;7.57;;;2.33;;
35917;SDS011;22011;59.912;30.300;2023-08-30T13:57:28;4.28;;;2.15;;
35917;SDS011;22011;59.912;30.300;2023-08-30T13:59:55;2.80;;;1.90;;
35917;SDS011;22011;59.912;30.300;2023-08-30T14:02:23;3.22;;;2.08;;
35917;SDS011;22011;59.912;30.300;2023-08-30T14:04:51;5.35;;;2.67;;
35917;SDS011;22011;59.912;30.300;2023-08-30T14:07:19;2.50;;;1.85;;
35917;SDS011;22011;59.912;30.300;2023-08-30T14:09:48;4.95;;;2.05;;
35917;SDS011;22011;59.912;30.300;2023-08-30T14:12:15;6.57;;;2.73;;
35917;SDS011;22011;59.912;30.300;2023-08-30T14:14:43;4.25;;;2.70;;
35917;SDS011;22011;59.912;30.300;2023-08-30T14:17:11;4.57;;;2.10;;
35917;SDS011;22011;59.912;30.300;2023-08-30T14:19:38;4.97;;;3.08;;
35917;SDS011;22011;59.912;30.300;2023-08-30T14:22:06;5.82;;;2.47;;
35917;SDS011;22011;59.912;30.300;2023-08-30T14:24:34;4.25;;;2.70;;
35917;SDS011;22011;59.912;30.300;2023-08-30T14:27:04;4.53;;;2.38;;
35917;SDS011;22011;59.912;30.300;2023-08-30T14:29:31;4.32;;;2.22;;
35917;SDS011;22011;59.912;30.300;2023-08-30T14:31:59;3.35;;;2.33;;
35917;SDS011;22011;59.912;30.300;2023-08-30T14:34:26;6.57;;;3.10;;
35917;SDS011;22011;59.912;30.300;2023-08-30T14:36:54;3.78;;;1.90;;
35917;SDS011;22011;59.912;30.300;2023-08-30T14:39:22;4.28;;;2.25;;